Time;durP1;ratioP1;P1;durP2;ratioP2;P2;SDS_P1;SDS_P2;PMS_P1;PMS_P2;Temp;Humidity;BMP_temperature;BMP_pressure;BME280_temperature;BME280_humidity;BME280_pressure;Samples;Min_cycle;Max_cycle;Signal;HPM_P1;HPM_P2
2022/04/11 03:00:47;;;;;;;11.63;9.83;;;0.40;99.90;;;;;;5734983;23;20261;-75
2022/04/11 03:03:13;;;;;;;10.20;9.50;;;0.40;99.90;;;;;;4932678;29;20662;-74
2022/04/11 03:05:39;;;;;;;10.33;9.37;;;0.40;99.90;;;;;;4932254;29;20258;-74
2022/04/11 03:08:05;;;;;;;10.33;9.33;;;0.50;99.90;;;;;;4932392;29;20182;-75
2022/04/11 03:10:31;;;;;;;11.07;10.07;;;0.50;99.90;;;;;;4932639;29;20245;-73
2022/04/11 03:12:56;;;;;;;11.50;10.50;;;0.50;99.90;;;;;;4932531;29;20257;-74
2022/04/11 03:17:51;;;;;;;12.80;11.57;;;0.60;99.90;;;;;;4892153;29;20247;-78
2022/04/11 03:20:17;;;;;;;12.17;11.17;;;0.70;99.90;;;;;;4896905;29;20687;-78
2022/04/11 03:22:43;;;;;;;12.97;11.73;;;0.80;99.90;;;;;;4897879;29;20207;-78
2022/04/11 03:25:09;;;;;;;11.87;10.63;;;0.80;99.90;;;;;;4901141;29;20201;-77
2022/04/11 03:27:35;;;;;;;10.47;9.57;;;0.90;99.90;;;;;;4896048;29;20302;-79
2022/04/11 03:30:01;;;;;;;10.37;9.00;;;0.80;99.90;;;;;;4899030;29;20207;-78
2022/04/11 03:32:26;;;;;;;9.83;9.03;;;0.90;99.90;;;;;;4900907;29;20196;-78
2022/04/11 03:34:52;;;;;;;10.63;9.73;;;0.90;99.90;;;;;;4894665;29;20190;-79
2022/04/11 03:37:18;;;;;;;10.03;9.13;;;0.90;99.90;;;;;;4893915;29;20714;-79
2022/04/11 03:39:44;;;;;;;10.40;9.10;;;1.00;99.90;;;;;;4894303;29;20211;-79
2022/04/11 03:42:10;;;;;;;12.77;9.50;;;1.00;99.90;;;;;;4894978;29;20198;-79
2022/04/11 03:44:35;;;;;;;11.30;9.37;;;1.00;99.90;;;;;;4896275;29;20186;-79
2022/04/11 03:47:02;;;;;;;9.87;8.97;;;0.90;99.90;;;;;;4895795;29;20208;-79
2022/04/11 03:49:28;;;;;;;10.27;9.43;;;0.90;99.90;;;;;;4898657;29;20186;-78
2022/04/11 03:51:54;;;;;;;10.93;8.57;;;0.90;99.90;;;;;;4897646;29;20188;-78
2022/04/11 03:54:19;;;;;;;9.90;8.83;;;1.00;99.90;;;;;;4897250;29;20210;-79
2022/04/11 03:56:45;;;;;;;11.93;9.53;;;0.90;99.90;;;;;;4896552;29;20633;-79
2022/04/11 03:59:11;;;;;;;10.60;9.67;;;0.90;99.90;;;;;;4895908;29;20241;-78
2022/04/11 04:01:37;;;;;;;9.43;8.63;;;0.90;99.90;;;;;;4890319;29;20188;-78
2022/04/11 04:04:03;;;;;;;10.13;9.17;;;0.90;99.90;;;;;;4895456;29;20275;-78
2022/04/11 04:06:29;;;;;;;9.87;9.07;;;0.90;99.90;;;;;;4895175;29;20677;-77
2022/04/11 04:08:55;;;;;;;10.63;9.63;;;0.90;99.90;;;;;;4894784;29;20201;-78
2022/04/11 04:11:21;;;;;;;10.03;9.23;;;0.80;99.90;;;;;;4895249;29;20195;-78
2022/04/11 04:13:48;;;;;;;10.67;9.77;;;0.80;99.90;;;;;;4895254;29;20191;-78
2022/04/11 04:16:13;;;;;;;10.37;9.47;;;0.80;99.90;;;;;;4895476;29;20259;-78
2022/04/11 04:18:39;;;;;;;11.07;9.57;;;0.80;99.90;;;;;;4895012;29;20211;-78
2022/04/11 04:21:05;;;;;;;10.77;9.87;;;0.70;99.90;;;;;;4894211;29;20193;-78
2022/04/11 04:23:32;;;;;;;9.73;9.03;;;0.70;99.90;;;;;;4895308;29;20219;-79
2022/04/11 04:25:58;;;;;;;12.07;9.13;;;0.70;99.90;;;;;;4896891;29;20204;-78
2022/04/11 04:28:23;;;;;;;10.90;9.80;;;0.70;99.90;;;;;;4894680;29;20272;-78
2022/04/11 04:30:49;;;;;;;9.03;8.30;;;0.70;99.90;;;;;;4898642;29;20195;-78
2022/04/11 04:33:15;;;;;;;9.43;8.63;;;0.70;99.90;;;;;;4903791;29;20292;-78
2022/04/11 04:35:41;;;;;;;13.10;8.97;;;0.70;99.90;;;;;;4919343;29;20594;-78
2022/04/11 04:38:08;;;;;;;9.43;8.70;;;0.70;99.90;;;;;;4899471;29;20284;-78
2022/04/11 04:40:34;;;;;;;10.10;9.23;;;0.60;99.90;;;;;;4898435;29;20246;-79
2022/04/11 04:43:00;;;;;;;10.00;9.10;;;0.60;99.90;;;;;;4898109;29;20176;-79
2022/04/11 04:45:26;;;;;;;11.47;8.80;;;0.60;99.90;;;;;;4898901;29;20267;-78
2022/04/11 04:47:51;;;;;;;9.90;8.70;;;0.60;99.90;;;;;;4899234;29;20277;-78
2022/04/11 04:50:17;;;;;;;9.53;8.63;;;0.60;99.90;;;;;;4898667;29;20184;-78
2022/04/11 04:52:43;;;;;;;10.40;9.50;;;0.60;99.90;;;;;;4897996;29;20194;-78
2022/04/11 04:55:09;;;;;;;12.17;11.07;;;0.70;99.90;;;;;;4898486;29;20232;-78
2022/04/11 04:57:35;;;;;;;13.40;11.57;;;0.70;99.90;;;;;;4897587;29;20212;-78
2022/04/11 05:00:01;;;;;;;13.33;12.03;;;0.60;99.90;;;;;;4897925;29;20222;-78
2022/04/11 05:02:34;;;;;;;12.47;11.30;;;0.60;99.90;;;;;;4897971;29;20562;-78
2022/04/11 05:05:11;;;;;;;13.80;12.40;;;0.60;99.90;;;;;;4898163;29;20277;-78
2022/04/11 05:07:37;;;;;;;14.93;13.60;;;0.60;99.90;;;;;;4899375;29;20257;-79
2022/04/11 05:10:05;;;;;;;15.40;14.03;;;0.60;99.90;;;;;;4897903;29;20322;-79
2022/04/11 05:12:45;;;;;;;17.10;14.53;;;0.60;99.90;;;;;;4896684;29;20195;-78
2022/04/11 05:15:12;;;;;;;16.77;15.27;;;0.70;99.90;;;;;;4897653;29;20546;-79
2022/04/11 05:17:38;;;;;;;17.20;14.87;;;0.70;99.90;;;;;;4898898;29;20226;-79
2022/04/11 05:20:06;;;;;;;15.83;14.43;;;0.80;99.90;;;;;;4898803;29;20215;-78
2022/04/11 05:22:32;;;;;;;23.87;21.63;;;0.80;99.90;;;;;;4897275;29;20180;-78
2022/04/11 05:24:58;;;;;;;17.17;15.70;;;0.80;99.90;;;;;;4896381;29;20238;-78
2022/04/11 05:27:24;;;;;;;17.37;15.77;;;0.90;99.90;;;;;;4896155;29;20255;-78
2022/04/11 05:29:50;;;;;;;20.17;18.13;;;1.00;99.90;;;;;;4897548;29;20557;-78
2022/04/11 05:32:16;;;;;;;17.73;15.93;;;1.10;99.90;;;;;;4897681;29;20191;-78
2022/04/11 05:34:42;;;;;;;15.27;11.83;;;1.30;99.90;;;;;;4897012;29;20190;-78
2022/04/11 05:37:07;;;;;;;15.20;12.60;;;1.60;99.90;;;;;;4896098;29;20678;-78
2022/04/11 05:39:33;;;;;;;16.47;14.90;;;1.80;99.90;;;;;;4898091;29;20222;-78
2022/04/11 05:41:59;;;;;;;13.17;11.87;;;1.90;99.90;;;;;;4899019;29;20230;-78
2022/04/11 05:44:25;;;;;;;13.90;12.13;;;1.90;99.90;;;;;;4898509;29;20191;-75
2022/04/11 05:46:53;;;;;;;14.03;11.70;;;1.90;99.90;;;;;;4897111;29;20258;-75
2022/04/11 05:49:20;;;;;;;13.23;11.97;;;1.80;99.90;;;;;;4897339;29;20628;-75
2022/04/11 05:51:46;;;;;;;15.13;13.93;;;1.90;99.90;;;;;;4896668;29;20198;-75
2022/04/11 05:54:12;;;;;;;14.63;13.03;;;2.40;99.90;;;;;;4897085;29;20194;-75
2022/04/11 05:56:38;;;;;;;12.53;11.27;;;3.10;99.90;;;;;;4896890;29;20202;-75
2022/04/11 05:59:04;;;;;;;17.20;15.73;;;3.70;99.90;;;;;;4896235;29;20211;-75
2022/04/11 06:01:31;;;;;;;11.27;10.33;;;4.40;99.90;;;;;;4896969;29;20183;-75
2022/04/11 06:03:56;;;;;;;10.43;9.63;;;4.80;99.90;;;;;;4896740;29;20187;-75
2022/04/11 06:06:22;;;;;;;10.00;9.03;;;5.20;99.90;;;;;;4896549;29;20207;-75
2022/04/11 06:08:48;;;;;;;12.30;11.23;;;5.40;99.90;;;;;;4895206;29;20214;-75
2022/04/11 06:11:14;;;;;;;11.50;10.30;;;6.00;99.90;;;;;;4897005;29;20195;-75
2022/04/11 06:13:45;;;;;;;10.50;9.40;;;6.20;99.90;;;;;;4896396;29;20199;-75
2022/04/11 06:16:14;;;;;;;9.23;8.20;;;6.70;99.90;;;;;;4896461;29;20223;-74
2022/04/11 06:18:40;;;;;;;11.83;10.93;;;7.10;99.90;;;;;;4896266;29;20225;-74
2022/04/11 06:21:07;;;;;;;10.33;9.47;;;7.40;99.90;;;;;;4910841;29;20267;-74
2022/04/11 06:23:33;;;;;;;10.20;9.37;;;7.60;99.90;;;;;;4906399;29;20202;-74
2022/04/11 06:26:00;;;;;;;10.53;9.43;;;8.00;99.90;;;;;;4896955;29;20302;-75
2022/04/11 06:28:26;;;;;;;9.53;8.77;;;8.20;99.90;;;;;;4896265;29;20191;-74
2022/04/11 06:30:51;;;;;;;10.30;9.40;;;8.50;99.90;;;;;;4896605;29;20628;-74
2022/04/11 06:33:18;;;;;;;9.80;8.90;;;8.50;99.90;;;;;;4896342;29;20288;-75
2022/04/11 06:35:44;;;;;;;9.63;8.73;;;8.70;99.90;;;;;;4895997;29;20235;-76
2022/04/11 06:38:10;;;;;;;12.17;11.23;;;8.80;99.90;;;;;;4895739;29;20610;-75
2022/04/11 06:40:36;;;;;;;16.50;15.40;;;9.10;99.90;;;;;;4895050;29;20187;-75
2022/04/11 06:43:01;;;;;;;13.10;12.07;;;9.20;99.90;;;;;;4894827;29;20541;-75
2022/04/11 06:45:27;;;;;;;16.70;8.47;;;9.30;99.90;;;;;;4894969;29;20184;-75
2022/04/11 06:47:53;;;;;;;8.37;7.67;;;9.80;99.90;;;;;;4895725;29;20549;-75
2022/04/11 06:50:19;;;;;;;8.23;7.43;;;10.20;99.90;;;;;;4895077;29;20219;-75
2022/04/11 06:52:45;;;;;;;7.53;6.77;;;10.30;99.90;;;;;;4895363;29;20278;-74
2022/04/11 06:55:11;;;;;;;7.10;6.50;;;10.70;99.90;;;;;;4895030;29;20275;-75
2022/04/11 06:57:36;;;;;;;7.70;6.80;;;10.90;99.90;;;;;;4895837;29;20209;-75
2022/04/11 07:00:03;;;;;;;8.03;7.20;;;11.00;99.90;;;;;;4895617;29;20213;-75
2022/04/11 07:02:29;;;;;;;9.90;8.17;;;11.10;99.90;;;;;;4894645;29;20675;-75
2022/04/11 07:04:55;;;;;;;8.33;7.70;;;11.50;99.90;;;;;;4895858;29;20229;-75
2022/04/11 07:07:21;;;;;;;8.03;7.33;;;11.70;99.90;;;;;;4895191;29;20253;-75
2022/04/11 07:09:46;;;;;;;8.50;7.87;;;11.90;99.90;;;;;;4894659;29;20236;-74
2022/04/11 07:12:12;;;;;;;7.83;7.33;;;12.20;99.90;;;;;;4894741;29;20192;-74
2022/04/11 07:14:38;;;;;;;7.23;6.67;;;12.10;99.90;;;;;;4894462;29;20222;-74
2022/04/11 07:17:05;;;;;;;7.07;6.57;;;11.90;99.90;;;;;;4895308;29;20223;-75
2022/04/11 07:19:31;;;;;;;6.83;6.33;;;11.60;99.90;;;;;;4895486;29;20275;-74
2022/04/11 07:21:56;;;;;;;11.67;6.23;;;11.50;99.90;;;;;;4895367;29;20184;-74
2022/04/11 07:24:23;;;;;;;6.97;6.53;;;11.30;99.90;;;;;;4895470;29;20211;-74
2022/04/11 07:26:49;;;;;;;8.13;7.13;;;11.70;99.90;;;;;;4895461;29;20195;-74
2022/04/11 07:29:15;;;;;;;7.07;6.50;;;12.00;99.90;;;;;;4894125;29;20190;-75
2022/04/11 07:31:40;;;;;;;6.87;6.33;;;11.90;99.90;;;;;;4895684;29;20625;-75
2022/04/11 07:34:07;;;;;;;6.77;6.17;;;12.10;99.90;;;;;;4894439;29;20191;-75
2022/04/11 07:36:32;;;;;;;7.33;6.50;;;12.20;99.90;;;;;;4895436;29;20274;-75
2022/04/11 07:38:58;;;;;;;5.33;4.83;;;12.10;98.60;;;;;;4895081;29;20223;-75
2022/04/11 07:41:24;;;;;;;6.83;6.20;;;11.70;97.20;;;;;;4895579;29;20222;-75
2022/04/11 07:43:51;;;;;;;6.17;5.67;;;11.40;98.00;;;;;;4894007;29;20223;-75
2022/04/11 07:46:17;;;;;;;5.87;5.37;;;11.80;98.30;;;;;;4895312;29;20323;-75
2022/04/11 07:48:43;;;;;;;6.57;5.80;;;12.20;95.90;;;;;;4895225;29;20195;-75
2022/04/11 07:51:09;;;;;;;6.70;6.10;;;12.40;95.80;;;;;;4895490;29;20228;-75
2022/04/11 07:53:35;;;;;;;5.37;5.03;;;12.30;95.30;;;;;;4895834;29;20602;-75
2022/04/11 07:56:01;;;;;;;6.20;4.57;;;12.30;94.10;;;;;;4895591;29;20249;-75
2022/04/11 07:58:27;;;;;;;5.53;5.13;;;12.30;94.10;;;;;;4895098;29;20195;-75
2022/04/11 08:00:53;;;;;;;5.00;4.70;;;12.00;93.30;;;;;;4895300;29;20300;-75
2022/04/11 08:03:20;;;;;;;5.93;5.53;;;11.90;92.40;;;;;;4895658;29;20742;-74
2022/04/11 08:05:46;;;;;;;5.60;5.20;;;11.50;93.40;;;;;;4901249;29;20252;-75
2022/04/11 08:08:12;;;;;;;5.07;4.77;;;11.70;93.90;;;;;;4918091;29;20180;-75
2022/04/11 08:10:38;;;;;;;7.73;6.43;;;11.90;92.90;;;;;;4899884;29;20236;-75
2022/04/11 08:13:03;;;;;;;5.97;5.47;;;12.10;93.40;;;;;;4899729;29;20217;-75
2022/04/11 08:15:31;;;;;;;6.63;6.13;;;12.40;92.90;;;;;;4899345;29;20184;-76
2022/04/11 08:17:57;;;;;;;5.50;5.20;;;12.70;91.10;;;;;;4897774;29;20211;-75
2022/04/11 08:20:24;;;;;;;5.33;4.83;;;12.70;89.50;;;;;;4913647;29;20257;-75
2022/04/11 08:22:50;;;;;;;5.97;5.30;;;12.50;90.20;;;;;;4899085;29;20188;-75
2022/04/11 08:25:16;;;;;;;5.10;4.80;;;12.50;90.20;;;;;;4897943;29;20191;-75
2022/04/11 08:27:43;;;;;;;6.40;5.20;;;12.40;89.60;;;;;;4897173;29;20245;-76
2022/04/11 08:30:12;;;;;;;5.30;5.00;;;12.20;90.10;;;;;;4898735;29;20184;-75
2022/04/11 08:32:45;;;;;;;8.90;8.07;;;12.20;88.20;;;;;;4897504;29;20188;-75
2022/04/11 08:35:12;;;;;;;5.47;5.10;;;12.50;88.40;;;;;;4898686;29;20187;-75
2022/04/11 08:37:40;;;;;;;5.47;4.80;;;12.40;87.00;;;;;;4898285;29;20221;-75
2022/04/11 08:40:13;;;;;;;4.73;4.43;;;12.60;87.60;;;;;;4897464;29;20222;-76
2022/04/11 08:42:41;;;;;;;7.23;4.93;;;12.90;85.40;;;;;;4898415;29;20208;-75
2022/04/11 08:45:07;;;;;;;6.00;5.53;;;12.70;84.00;;;;;;4898434;29;20283;-75
2022/04/11 08:47:34;;;;;;;9.07;8.13;;;12.70;83.50;;;;;;4898146;29;20202;-75
2022/04/11 08:50:02;;;;;;;8.40;7.57;;;13.00;83.50;;;;;;4898831;29;20219;-76
2022/04/11 08:52:30;;;;;;;5.17;4.67;;;13.10;82.80;;;;;;4898428;29;20734;-75
2022/04/11 08:54:56;;;;;;;5.33;4.83;;;13.00;82.10;;;;;;4898397;29;20269;-75
2022/04/11 08:57:22;;;;;;;6.73;6.13;;;13.00;82.90;;;;;;4897773;29;20211;-76
2022/04/11 08:59:49;;;;;;;6.10;5.60;;;13.20;82.40;;;;;;4898259;29;20212;-75
2022/04/11 09:02:15;;;;;;;4.67;4.37;;;13.70;80.30;;;;;;4898212;29;20194;-76
2022/04/11 09:04:56;;;;;;;5.10;4.70;;;14.10;79.20;;;;;;4898276;29;20673;-75
2022/04/11 09:07:22;;;;;;;6.33;5.80;;;14.20;77.70;;;;;;4897803;29;20218;-76
2022/04/11 09:09:48;;;;;;;4.40;4.13;;;14.30;76.70;;;;;;4897808;29;20287;-76
2022/04/11 09:12:15;;;;;;;4.33;4.13;;;14.10;74.90;;;;;;4912586;29;20188;-75
2022/04/11 09:14:44;;;;;;;5.20;4.70;;;13.80;75.00;;;;;;4897856;29;20184;-75
2022/04/11 09:17:11;;;;;;;4.63;4.33;;;13.80;74.40;;;;;;4928034;23;20651;-72
2022/04/11 09:19:38;;;;;;;4.67;4.47;;;13.60;74.60;;;;;;4915943;29;20223;-72
2022/04/11 09:22:05;;;;;;;5.83;4.07;;;13.60;74.90;;;;;;4916573;29;20300;-71
2022/04/11 09:24:31;;;;;;;4.33;4.13;;;13.80;74.00;;;;;;4930356;29;20189;-71
2022/04/11 09:26:58;;;;;;;5.53;5.07;;;13.90;74.00;;;;;;4933688;29;20210;-71
2022/04/11 09:29:26;;;;;;;6.10;5.63;;;14.00;74.00;;;;;;4906261;29;20194;-72
2022/04/11 09:31:53;;;;;;;7.23;6.63;;;14.50;72.20;;;;;;4897664;29;20659;-72
2022/04/11 09:34:26;;;;;;;5.47;5.07;;;14.60;69.70;;;;;;4906416;29;20183;-72
2022/04/11 09:36:55;;;;;;;5.63;5.07;;;15.10;69.20;;;;;;4914566;29;20210;-71
2022/04/11 09:39:25;;;;;;;5.53;5.23;;;15.10;70.10;;;;;;4916209;29;20270;-71
2022/04/11 09:41:52;;;;;;;5.50;5.20;;;15.30;68.20;;;;;;4915610;29;20208;-72
2022/04/11 09:44:29;;;;;;;6.43;6.03;;;15.30;67.70;;;;;;4916826;29;20659;-71
2022/04/11 09:47:03;;;;;;;5.50;5.20;;;15.40;67.30;;;;;;4918421;29;20213;-72
2022/04/11 09:49:30;;;;;;;6.03;5.63;;;15.50;65.70;;;;;;4933021;29;20241;-71
2022/04/11 09:52:03;;;;;;;5.77;5.37;;;15.50;65.40;;;;;;4906832;29;20199;-71
2022/04/11 09:54:29;;;;;;;5.57;5.27;;;15.70;63.90;;;;;;4895974;29;20188;-71
2022/04/11 09:56:58;;;;;;;5.67;5.23;;;15.80;64.40;;;;;;4905331;29;20249;-71
2022/04/11 09:59:24;;;;;;;5.80;5.50;;;15.50;64.60;;;;;;4915789;29;20728;-71
2022/04/11 10:01:51;;;;;;;5.73;5.33;;;15.90;64.60;;;;;;4915661;29;20179;-71
2022/04/11 10:04:21;;;;;;;7.17;6.67;;;16.00;62.60;;;;;;4914526;29;20187;-71
2022/04/11 10:06:48;;;;;;;5.00;4.50;;;16.10;61.10;;;;;;4915885;29;20199;-71
2022/04/11 10:09:14;;;;;;;4.57;4.33;;;15.80;61.20;;;;;;4915615;29;20198;-71
2022/04/11 10:11:42;;;;;;;6.80;6.30;;;15.70;62.00;;;;;;4907794;29;20202;-72
2022/04/11 10:14:13;;;;;;;6.83;6.17;;;15.90;63.00;;;;;;4914557;29;20187;-71
2022/04/11 10:16:43;;;;;;;4.60;4.40;;;16.80;62.10;;;;;;4914812;29;20234;-71
2022/04/11 10:19:13;;;;;;;6.10;5.70;;;16.90;57.10;;;;;;4915580;29;20222;-71
2022/04/11 10:21:41;;;;;;;5.80;5.30;;;16.40;58.40;;;;;;4916068;29;20671;-71
2022/04/11 10:24:16;;;;;;;5.60;5.17;;;16.40;56.50;;;;;;4914679;29;20563;-71
2022/04/11 10:26:55;;;;;;;5.07;4.77;;;16.40;58.40;;;;;;4914600;29;20562;-71
2022/04/11 10:29:38;;;;;;;4.63;4.33;;;16.80;56.50;;;;;;4913942;29;20198;-72
2022/04/11 10:32:09;;;;;;;5.63;5.23;;;17.50;56.60;;;;;;4915258;29;20623;-71
2022/04/11 10:34:48;;;;;;;5.07;4.60;;;18.20;55.80;;;;;;4913898;29;20294;-72
2022/04/11 10:37:15;;;;;;;4.20;3.90;;;18.60;53.80;;;;;;4915068;29;20241;-72
2022/04/11 10:39:43;;;;;;;5.20;4.80;;;18.40;54.10;;;;;;4915301;29;20210;-72
2022/04/11 10:42:15;;;;;;;5.17;4.87;;;19.00;52.20;;;;;;4915371;29;20269;-72
2022/04/11 10:44:51;;;;;;;4.83;4.43;;;19.20;50.60;;;;;;4914341;29;20776;-71
2022/04/11 10:47:17;;;;;;;4.83;4.43;;;18.40;50.40;;;;;;4914788;29;20233;-70
2022/04/11 10:49:48;;;;;;;4.30;4.00;;;18.90;50.50;;;;;;4905878;29;20808;-69
2022/04/11 10:52:33;;;;;;;3.87;3.70;;;19.40;49.80;;;;;;4914693;29;20191;-69
2022/04/11 10:55:20;;;;;;;4.30;4.10;;;19.10;48.30;;;;;;4913836;29;20202;-68
2022/04/11 10:57:47;;;;;;;4.50;4.27;;;19.60;48.30;;;;;;4913325;29;20234;-68
2022/04/11 11:00:27;;;;;;;4.70;4.30;;;19.50;47.70;;;;;;4913626;29;20299;-69
2022/04/11 11:02:53;;;;;;;4.33;4.13;;;18.90;47.30;;;;;;4914921;29;20179;-69
2022/04/11 11:05:30;;;;;;;4.73;4.40;;;19.60;46.50;;;;;;4915401;29;20190;-69
2022/04/11 11:08:20;;;;;;;4.13;3.83;;;19.40;48.60;;;;;;4913156;29;20941;-69
2022/04/11 11:10:55;;;;;;;3.77;3.57;;;19.70;49.80;;;;;;4908961;29;20206;-71
2022/04/11 11:13:40;;;;;;;7.93;7.53;;;20.10;46.10;;;;;;4913520;29;20190;-69
2022/04/11 11:16:10;;;;;;;5.33;5.03;;;20.30;44.00;;;;;;4914589;29;20209;-69
2022/04/11 11:21:21;;;;;;;11.70;11.10;;;20.60;46.20;;;;;;4914773;29;20194;-69
2022/04/11 11:24:02;;;;;;;16.03;15.33;;;21.10;45.10;;;;;;4914723;29;20195;-69
2022/04/11 11:26:48;;;;;;;23.67;21.13;;;20.30;44.80;;;;;;4913372;29;20638;-71
2022/04/11 11:29:23;;;;;;;4.60;4.30;;;19.70;47.60;;;;;;4910530;29;20205;-70
2022/04/11 11:31:57;;;;;;;4.90;4.60;;;20.20;50.00;;;;;;4925099;29;20193;-70
2022/04/11 11:34:28;;;;;;;4.50;4.30;;;20.30;48.70;;;;;;4933536;29;20196;-70
2022/04/11 11:37:13;;;;;;;4.87;4.57;;;20.20;48.60;;;;;;4933298;29;20765;-70
2022/04/11 11:39:42;;;;;;;3.97;3.77;;;19.90;50.00;;;;;;4937421;29;20591;-70
2022/04/11 11:42:10;;;;;;;4.60;4.20;;;20.30;49.20;;;;;;4937634;29;20189;-69
2022/04/11 11:44:49;;;;;;;6.10;5.70;;;20.50;49.90;;;;;;4937594;29;20186;-69
2022/04/11 11:47:15;;;;;;;9.83;9.33;;;21.20;45.60;;;;;;4937249;29;20205;-68
2022/04/11 11:49:46;;;;;;;7.20;6.80;;;20.60;45.70;;;;;;4937511;29;20784;-69
2022/04/11 11:52:17;;;;;;;7.20;6.80;;;20.10;47.80;;;;;;4937435;29;20182;-70
2022/04/11 11:54:46;;;;;;;6.67;6.07;;;19.90;47.00;;;;;;4936438;29;20655;-69
2022/04/11 11:57:26;;;;;;;8.70;7.13;;;20.00;46.60;;;;;;4937559;29;20224;-70
2022/04/11 11:59:57;;;;;;;12.57;9.77;;;20.00;47.00;;;;;;4937789;29;20218;-69
2022/04/11 12:05:26;;;;;;;13.73;13.03;;;20.60;46.00;;;;;;4938106;29;20190;-69
2022/04/11 12:08:17;;;;;;;14.50;13.73;;;20.90;44.00;;;;;;4937156;29;20281;-72
2022/04/11 12:10:52;;;;;;;15.50;14.63;;;21.00;43.40;;;;;;4936435;29;20182;-72
2022/04/11 12:13:32;;;;;;;14.40;13.40;;;21.20;43.40;;;;;;4936641;29;20193;-71
2022/04/11 12:16:09;;;;;;;15.00;14.23;;;21.50;44.50;;;;;;4937495;29;20563;-70
2022/04/11 12:18:48;;;;;;;9.70;9.27;;;21.00;43.30;;;;;;4935768;29;20598;-71
2022/04/11 12:21:13;;;;;;;9.77;9.17;;;21.10;42.60;;;;;;4940145;29;20190;-72
2022/04/11 12:23:47;;;;;;;13.73;12.90;;;21.00;42.20;;;;;;4939934;29;20204;-71
2022/04/11 12:26:27;;;;;;;13.97;13.20;;;20.80;42.90;;;;;;4937156;29;20242;-72
2022/04/11 12:28:53;;;;;;;12.57;11.97;;;21.20;44.20;;;;;;4935762;29;20240;-72
2022/04/11 12:31:19;;;;;;;7.13;6.63;;;22.10;44.20;;;;;;4936832;29;20183;-71
2022/04/11 12:33:46;;;;;;;7.40;6.90;;;22.30;42.30;;;;;;4936965;29;20209;-71
2022/04/11 12:36:26;;;;;;;12.07;11.27;;;21.50;42.70;;;;;;4936715;29;20194;-71
2022/04/11 12:39:20;;;;;;;12.77;12.00;;;21.20;43.90;;;;;;4909895;29;20219;-70
2022/04/11 12:41:49;;;;;;;13.77;13.00;;;21.70;43.50;;;;;;4916093;29;20191;-71
2022/04/11 12:44:19;;;;;;;13.40;12.70;;;21.90;44.80;;;;;;4916652;29;20214;-72
2022/04/11 12:47:00;;;;;;;9.50;9.00;;;21.90;44.70;;;;;;4915576;29;20420;-71
2022/04/11 12:49:44;;;;;;;8.97;8.47;;;21.70;43.70;;;;;;4916568;29;20206;-72
2022/04/11 12:52:10;;;;;;;12.87;12.17;;;21.60;43.40;;;;;;4909149;29;22384;-72
2022/04/11 12:54:40;;;;;;;8.07;7.63;;;21.40;44.50;;;;;;4914014;29;20217;-72
2022/04/11 12:57:28;;;;;;;10.37;9.57;;;21.80;43.30;;;;;;4915553;29;20230;-71
2022/04/11 12:59:54;;;;;;;10.50;9.90;;;22.10;44.10;;;;;;4916848;29;20211;-72
2022/04/11 13:02:28;;;;;;;8.77;8.07;;;22.10;43.50;;;;;;4915972;29;20180;-72
2022/04/11 13:04:56;;;;;;;8.23;7.83;;;21.90;43.60;;;;;;4912041;29;22585;-73
2022/04/11 13:07:25;;;;;;;5.17;4.30;;;22.80;43.10;;;;;;4913676;29;20211;-72
2022/04/11 13:09:52;;;;;;;4.10;3.77;;;23.70;40.00;;;;;;4917616;29;20187;-72
2022/04/11 13:12:19;;;;;;;3.60;3.42;;;24.40;39.30;;;;;;4917081;29;20258;-72
2022/04/11 13:14:47;;;;;;;3.97;3.70;;;24.10;38.90;;;;;;4918280;29;20222;-72
2022/04/11 13:20:00;;;;;;;5.07;4.77;;;22.70;41.70;;;;;;4916988;29;20349;-72
2022/04/11 13:22:27;;;;;;;5.00;4.70;;;22.60;41.90;;;;;;4916579;29;20206;-72
2022/04/11 13:24:55;;;;;;;4.87;4.47;;;23.30;41.20;;;;;;4916599;29;20187;-72
2022/04/11 13:27:22;;;;;;;4.37;4.07;;;23.60;39.20;;;;;;4914911;29;20202;-72
2022/04/11 13:29:49;;;;;;;4.20;4.00;;;24.60;38.60;;;;;;4916862;29;20636;-73
2022/04/11 13:32:15;;;;;;;4.32;4.03;;;25.10;36.60;;;;;;4918093;29;20222;-73
2022/04/11 13:34:41;;;;;;;5.22;4.05;;;24.10;38.00;;;;;;4918710;29;20194;-73
2022/04/11 13:37:07;;;;;;;4.78;4.03;;;24.00;37.60;;;;;;4915300;29;20210;-73
2022/04/11 13:39:34;;;;;;;4.03;3.83;;;23.90;37.80;;;;;;4914873;29;20219;-71
2022/04/11 13:42:00;;;;;;;4.03;3.83;;;24.50;37.70;;;;;;4917003;29;20207;-72
2022/04/11 13:44:26;;;;;;;4.57;4.18;;;24.70;36.80;;;;;;4915415;29;20219;-74
2022/04/11 13:46:53;;;;;;;8.55;4.45;;;25.20;37.00;;;;;;4915933;29;20298;-72
2022/04/11 13:49:20;;;;;;;4.60;4.30;;;25.10;36.30;;;;;;4915962;29;20550;-71
2022/04/11 13:51:46;;;;;;;4.35;4.15;;;25.10;35.00;;;;;;4914818;29;20571;-72
2022/04/11 13:54:14;;;;;;;5.20;4.90;;;25.00;35.60;;;;;;4916337;29;20194;-71
2022/04/11 13:56:40;;;;;;;4.70;4.40;;;25.40;35.00;;;;;;4915779;29;20199;-71
2022/04/11 13:59:12;;;;;;;4.20;3.90;;;24.20;36.00;;;;;;4914619;29;20211;-72
2022/04/11 14:01:40;;;;;;;5.22;4.65;;;25.00;35.60;;;;;;4915186;29;20183;-71
2022/04/11 14:04:07;;;;;;;4.43;4.15;;;25.30;35.10;;;;;;4916092;29;20269;-71
2022/04/11 14:06:37;;;;;;;4.60;4.20;;;24.50;35.40;;;;;;4915777;29;20209;-71
2022/04/11 14:09:04;;;;;;;4.40;4.10;;;24.10;36.70;;;;;;4915400;29;20183;-71
2022/04/11 14:11:30;;;;;;;5.22;4.72;;;24.60;35.00;;;;;;4914374;29;20186;-71
2022/04/11 14:13:56;;;;;;;5.80;5.40;;;24.90;33.50;;;;;;4915612;29;20269;-71
2022/04/11 14:16:22;;;;;;;4.88;4.47;;;25.80;32.80;;;;;;4915555;29;20218;-71
2022/04/11 14:18:48;;;;;;;4.75;4.35;;;25.80;31.80;;;;;;4913880;29;20210;-73
2022/04/11 14:21:14;;;;;;;4.97;4.68;;;24.90;33.10;;;;;;4915737;29;20183;-73
2022/04/11 14:23:40;;;;;;;6.03;5.63;;;24.80;33.70;;;;;;4914303;29;20230;-71
2022/04/11 14:26:06;;;;;;;5.33;4.93;;;24.10;33.80;;;;;;4915225;29;20202;-71
2022/04/11 14:28:33;;;;;;;5.25;4.95;;;23.40;35.30;;;;;;4915122;29;20183;-71
2022/04/11 14:30:59;;;;;;;4.85;4.40;;;23.70;36.00;;;;;;4915305;29;20277;-71
2022/04/11 14:33:25;;;;;;;5.20;4.70;;;25.10;35.00;;;;;;4915236;29;20270;-72
2022/04/11 14:35:51;;;;;;;5.55;5.15;;;25.50;33.80;;;;;;4914173;29;20183;-71
2022/04/11 14:38:16;;;;;;;5.10;4.60;;;24.70;34.00;;;;;;4914770;29;20199;-71
2022/04/11 14:40:44;;;;;;;5.40;4.90;;;23.30;36.00;;;;;;4913832;29;20706;-71
2022/04/11 14:43:10;;;;;;;6.10;5.70;;;23.60;36.50;;;;;;4915159;29;20179;-72
2022/04/11 14:45:37;;;;;;;4.72;4.43;;;24.70;34.50;;;;;;4915199;29;20189;-72
2022/04/11 14:48:04;;;;;;;5.78;5.47;;;25.20;33.80;;;;;;4914785;29;20348;-73
2022/04/11 14:50:30;;;;;;;5.70;5.30;;;25.40;33.30;;;;;;4913936;29;20187;-72
2022/04/11 14:52:57;;;;;;;5.75;5.35;;;25.30;33.40;;;;;;4914987;29;20636;-72
2022/04/11 14:55:23;;;;;;;6.53;6.13;;;25.00;33.10;;;;;;4914926;29;20195;-72
2022/04/11 14:57:48;;;;;;;6.03;5.67;;;24.30;34.10;;;;;;4913320;29;20217;-72
2022/04/11 15:00:15;;;;;;;6.05;5.45;;;24.30;34.60;;;;;;4915147;29;20254;-73
2022/04/11 15:02:42;;;;;;;6.45;5.85;;;24.90;34.40;;;;;;4915821;29;20282;-72
2022/04/11 15:05:08;;;;;;;5.30;4.85;;;25.20;33.30;;;;;;4918480;29;20183;-71
2022/04/11 15:07:34;;;;;;;6.23;5.73;;;24.80;33.20;;;;;;4915546;29;20207;-72
2022/04/11 15:10:02;;;;;;;5.73;5.23;;;23.60;35.00;;;;;;4913837;29;20472;-71
2022/04/11 15:12:28;;;;;;;5.70;5.33;;;23.40;35.40;;;;;;4913366;29;20238;-71
2022/04/11 15:14:54;;;;;;;5.93;5.10;;;23.30;36.10;;;;;;4914545;29;20254;-71
2022/04/11 15:17:20;;;;;;;5.13;4.73;;;23.40;36.40;;;;;;4914412;29;20766;-71
2022/04/11 15:19:48;;;;;;;5.57;5.17;;;23.90;35.40;;;;;;4939325;23;20696;-76
2022/04/11 15:22:14;;;;;;;5.67;5.17;;;23.60;35.20;;;;;;4917930;29;20183;-76
2022/04/11 15:24:40;;;;;;;6.15;5.53;;;23.70;35.50;;;;;;4914938;29;20190;-76
2022/04/11 15:27:06;;;;;;;5.30;4.90;;;23.70;35.00;;;;;;4914460;29;20190;-70
2022/04/11 15:29:33;;;;;;;6.07;5.43;;;22.80;36.70;;;;;;4915299;29;20206;-71
2022/04/11 15:32:03;;;;;;;5.43;4.97;;;22.60;37.10;;;;;;4913699;29;20222;-70
2022/04/11 15:34:30;;;;;;;6.13;5.60;;;22.60;37.20;;;;;;4914583;29;20182;-70
2022/04/11 15:36:56;;;;;;;6.63;5.37;;;22.80;37.00;;;;;;4913115;29;20179;-70
2022/04/11 15:39:22;;;;;;;6.03;4.40;;;23.40;36.70;;;;;;4914390;29;20695;-70
2022/04/11 15:41:48;;;;;;;5.50;5.00;;;23.30;36.00;;;;;;4914552;29;20187;-70
2022/04/11 15:44:14;;;;;;;5.97;5.00;;;22.10;37.00;;;;;;4915418;29;20201;-77
2022/04/11 15:46:40;;;;;;;6.63;6.03;;;21.50;38.40;;;;;;4907437;29;20560;-77
2022/04/11 15:49:06;;;;;;;6.87;6.37;;;21.40;38.70;;;;;;4893817;29;20293;-77
2022/04/11 15:51:33;;;;;;;6.80;6.13;;;21.60;38.30;;;;;;4894854;29;20649;-77
2022/04/11 15:53:59;;;;;;;6.10;5.60;;;21.80;38.50;;;;;;4894610;29;20874;-77
2022/04/11 15:56:25;;;;;;;6.10;5.70;;;21.80;38.20;;;;;;4894345;29;20283;-77
2022/04/11 15:58:51;;;;;;;6.10;5.60;;;21.80;38.60;;;;;;4895303;29;20243;-77
2022/04/11 16:01:17;;;;;;;6.13;5.63;;;21.80;37.60;;;;;;4910126;29;20279;-77